createdAt,value
2019-04-04T00:03:45.745Z,13.31
2019-04-04T00:08:47.436Z,13.26
2019-04-04T00:13:48.998Z,13.20
2019-04-04T00:18:50.656Z,13.14
2019-04-04T00:23:52.350Z,13.17
2019-04-04T00:28:53.902Z,13.17
2019-04-04T00:33:55.907Z,13.15
2019-04-04T00:38:58.291Z,13.03
2019-04-04T00:43:59.972Z,12.93
2019-04-04T00:49:04.552Z,12.85
2019-04-04T00:54:05.268Z,12.77
2019-04-04T00:59:06.812Z,12.38
2019-04-04T01:04:08.496Z,12.12
2019-04-04T01:09:13.111Z,12.29
2019-04-04T01:14:13.559Z,12.32
2019-04-04T01:19:15.233Z,12.27
2019-04-04T01:24:16.921Z,12.06
2019-04-04T01:29:18.478Z,11.86
2019-04-04T01:34:20.939Z,11.59
2019-04-04T01:39:23.072Z,11.27
2019-04-04T01:44:24.675Z,11.43
2019-04-04T01:49:26.254Z,11.25
2019-04-04T01:54:27.812Z,11.11
2019-04-04T01:59:29.369Z,11.07
2019-04-04T02:04:30.923Z,10.97
2019-04-04T02:09:34.552Z,10.75
2019-04-04T02:14:36.226Z,10.68
2019-04-04T02:19:37.915Z,10.59
2019-04-04T02:24:39.457Z,10.51
2019-04-04T02:29:41.860Z,10.36
2019-04-04T02:34:44.018Z,10.39
2019-04-04T02:39:45.563Z,10.35
2019-04-04T02:44:47.226Z,10.31
2019-04-04T02:49:48.755Z,10.45
2019-04-04T02:54:50.292Z,10.56
2019-04-04T02:59:53.435Z,10.61
2019-04-04T03:04:55.344Z,10.63
2019-04-04T03:09:56.995Z,10.60
2019-04-04T03:14:58.663Z,10.42
2019-04-04T03:20:00.323Z,10.19
2019-04-04T03:25:01.980Z,10.16
2019-04-04T03:30:04.409Z,10.04
2019-04-04T03:35:06.312Z,9.99
2019-04-04T03:40:08.566Z,10.09
2019-04-04T03:45:10.315Z,10.29
2019-04-04T03:50:11.947Z,10.40
2019-04-04T03:55:13.557Z,10.49
2019-04-04T04:00:24.704Z,10.58
2019-04-04T04:05:34.217Z,10.63
2019-04-04T04:10:33.397Z,10.62
2019-04-04T04:15:35.356Z,10.60
2019-04-04T04:20:37.921Z,10.68
2019-04-04T04:25:42.283Z,10.68
2019-04-04T04:30:43.922Z,10.63
2019-04-04T04:35:45.491Z,10.66
2019-04-04T04:40:48.036Z,10.63
2019-04-04T04:45:49.780Z,10.57
2019-04-04T04:50:51.347Z,10.52
2019-04-04T04:55:52.917Z,10.50
2019-04-04T05:00:54.545Z,10.55
2019-04-04T05:05:56.080Z,10.32
2019-04-04T05:10:57.638Z,10.12
2019-04-04T05:15:59.184Z,10.18
2019-04-04T05:21:01.957Z,10.17
2019-04-04T05:26:04.157Z,10.02
2019-04-04T05:31:05.671Z,10.11
2019-04-04T05:36:07.336Z,10.22
2019-04-04T05:41:08.873Z,10.24
2019-04-04T05:46:10.520Z,10.35
2019-04-04T05:51:14.965Z,10.42
2019-04-04T05:56:15.869Z,10.42
2019-04-04T06:01:17.993Z,10.52
2019-04-04T06:06:19.520Z,10.62
2019-04-04T06:11:21.758Z,10.66
2019-04-04T06:16:23.372Z,10.68
2019-04-04T06:21:24.866Z,10.74
2019-04-04T06:26:26.544Z,10.72
2019-04-04T06:31:30.823Z,10.75
2019-04-04T06:36:31.747Z,10.74
2019-04-04T06:41:33.267Z,10.54
2019-04-04T06:46:34.792Z,10.53
2019-04-04T06:51:36.328Z,10.74
2019-04-04T06:56:37.848Z,10.51
2019-04-04T07:01:39.389Z,10.65
2019-04-04T07:06:42.043Z,10.60
2019-04-04T07:11:43.987Z,10.57
2019-04-04T07:16:45.590Z,10.64
2019-04-04T07:21:47.179Z,10.60
2019-04-04T07:26:48.709Z,10.67
2019-04-04T07:31:50.258Z,10.70
2019-04-04T07:36:51.926Z,10.81
2019-04-04T07:41:53.517Z,10.94
2019-04-04T07:46:55.045Z,10.92
2019-04-04T07:51:56.572Z,10.92
2019-04-04T07:56:58.185Z,10.98
2019-04-04T08:01:59.726Z,11.11
2019-04-04T08:07:01.363Z,11.28
2019-04-04T08:12:03.031Z,11.35
2019-04-04T08:17:04.559Z,11.54
2019-04-04T08:22:06.174Z,11.78
2019-04-04T08:27:07.852Z,11.95
2019-04-04T08:32:09.399Z,12.11
2019-04-04T08:37:10.950Z,12.29
2019-04-04T08:42:12.480Z,12.30
2019-04-04T08:47:14.011Z,12.47
2019-04-04T08:52:17.270Z,12.89
2019-04-04T08:57:19.018Z,12.95
2019-04-04T09:02:20.898Z,12.77
2019-04-04T09:07:22.455Z,12.74
2019-04-04T09:12:24.123Z,12.49
2019-04-04T09:17:25.666Z,12.52
2019-04-04T09:22:27.204Z,12.52
2019-04-04T09:27:28.762Z,12.53
2019-04-04T09:32:30.320Z,12.49
2019-04-04T09:37:31.861Z,12.57
2019-04-04T09:42:33.447Z,12.74
2019-04-04T09:47:35.027Z,12.86
2019-04-04T09:52:36.567Z,12.94
2019-04-04T09:57:38.109Z,13.04
2019-04-04T10:02:39.945Z,13.22
2019-04-04T10:07:41.660Z,13.40
2019-04-04T10:12:43.328Z,13.57
2019-04-04T10:17:44.953Z,13.76
2019-04-04T10:22:46.512Z,13.87
2019-04-04T10:27:48.072Z,13.74
2019-04-04T10:32:49.628Z,14.04
2019-04-04T10:37:51.159Z,14.20
2019-04-04T10:42:52.714Z,14.40
2019-04-04T10:47:54.255Z,14.60
2019-04-04T10:52:55.807Z,14.78
2019-04-04T10:57:57.440Z,14.96
2019-04-04T11:02:59.081Z,15.19
2019-04-04T11:08:00.629Z,15.39
2019-04-04T11:13:03.023Z,15.57
2019-04-04T11:18:04.738Z,15.74
2019-04-04T11:23:06.521Z,16.02
2019-04-04T11:28:08.170Z,16.32
2019-04-04T11:33:09.756Z,16.97
2019-04-04T11:38:11.319Z,18.44
2019-04-04T11:43:13.102Z,20.39
2019-04-04T11:48:14.677Z,22.51
2019-04-04T11:53:16.370Z,25.36
2019-04-04T11:58:18.163Z,24.20
2019-04-04T12:03:19.777Z,23.18
2019-04-04T12:08:21.463Z,23.08
2019-04-04T12:13:23.015Z,21.96
2019-04-04T12:18:24.616Z,21.65
2019-04-04T12:23:26.202Z,21.62
2019-04-04T12:28:27.764Z,21.69
2019-04-04T12:33:29.600Z,21.84
2019-04-04T12:38:31.179Z,22.21
2019-04-04T12:43:32.927Z,22.72
2019-04-04T12:48:34.566Z,22.85
2019-04-04T12:53:36.268Z,22.58
2019-04-04T12:58:37.915Z,22.40
2019-04-04T13:03:39.471Z,22.87
2019-04-04T13:08:41.070Z,23.11
2019-04-04T13:13:42.727Z,23.72
2019-04-04T13:18:44.441Z,24.23
2019-04-04T13:23:46.057Z,24.92
2019-04-04T13:28:47.646Z,25.13
2019-04-04T13:33:49.235Z,24.72
2019-04-04T13:38:50.885Z,24.15
2019-04-04T13:43:54.378Z,23.85
2019-04-04T13:48:56.064Z,23.45
2019-04-04T13:54:02.268Z,23.18
2019-04-04T13:59:05.949Z,23.56
2019-04-04T14:04:07.655Z,24.03
2019-04-04T14:09:12.084Z,24.63
2019-04-04T14:14:12.783Z,24.91
2019-04-04T14:19:14.517Z,24.55
2019-04-04T14:24:18.276Z,24.65
2019-04-04T14:29:27.229Z,24.57
2019-04-04T14:34:23.691Z,24.46
2019-04-04T14:39:28.740Z,24.03
2019-04-04T14:44:30.782Z,23.71
2019-04-04T14:49:32.388Z,23.32
2019-04-04T14:54:34.076Z,23.16
2019-04-04T14:59:35.818Z,23.35
2019-04-04T15:04:37.474Z,23.24
2019-04-04T15:09:39.279Z,23.29
2019-04-04T15:14:41.110Z,23.91
2019-04-04T15:19:42.767Z,23.98
2019-04-04T15:24:44.320Z,24.03
2019-04-04T15:29:45.853Z,23.90
2019-04-04T15:34:47.413Z,23.98
2019-04-04T15:39:48.986Z,23.96
2019-04-04T15:44:50.565Z,24.60
2019-04-04T15:49:52.373Z,24.53
2019-04-04T15:54:53.963Z,24.42
2019-04-04T15:59:55.640Z,23.40
2019-04-04T16:04:57.257Z,22.28
2019-04-04T16:09:59.011Z,21.60
2019-04-04T16:15:00.671Z,21.60
2019-04-04T16:20:02.464Z,21.44
2019-04-04T16:25:04.689Z,21.05
2019-04-04T16:30:08.002Z,20.75
2019-04-04T16:35:09.974Z,20.72
2019-04-04T16:40:11.853Z,20.58
2019-04-04T16:45:13.531Z,23.08
2019-04-04T16:50:15.072Z,23.08
2019-04-04T16:55:16.713Z,22.50
2019-04-04T17:00:20.831Z,22.62
2019-04-04T17:05:22.137Z,22.36
2019-04-04T17:10:23.872Z,21.93
2019-04-04T17:15:25.439Z,21.58
2019-04-04T17:20:26.980Z,21.19
2019-04-04T17:25:28.537Z,19.90
2019-04-04T17:30:30.133Z,19.90
2019-04-04T17:35:31.827Z,19.17
2019-04-04T17:40:33.548Z,18.79
2019-04-04T17:45:35.626Z,18.54
2019-04-04T17:50:37.897Z,18.33
2019-04-04T17:55:40.070Z,18.12
2019-04-04T18:00:41.969Z,17.97
2019-04-04T18:05:43.572Z,17.82
2019-04-04T18:10:45.205Z,17.67
2019-04-04T18:15:46.882Z,17.54
2019-04-04T18:20:48.576Z,17.42
2019-04-04T18:25:50.081Z,17.27
2019-04-04T18:30:51.629Z,17.21
2019-04-04T18:35:53.294Z,17.09
2019-04-04T18:40:54.832Z,17.08
2019-04-04T18:45:56.521Z,16.96
2019-04-04T18:50:58.225Z,16.62
2019-04-04T18:55:59.866Z,16.16
2019-04-04T19:01:01.648Z,16.15
2019-04-04T19:06:03.310Z,15.99
2019-04-04T19:11:04.991Z,15.58
2019-04-04T19:16:06.753Z,15.31
2019-04-04T19:21:08.397Z,15.08
2019-04-04T19:26:10.070Z,14.78
2019-04-04T19:31:11.721Z,14.62
2019-04-04T19:36:13.261Z,14.57
2019-04-04T19:41:14.815Z,14.54
2019-04-04T19:46:16.459Z,14.58
2019-04-04T19:51:17.999Z,14.44
2019-04-04T19:56:19.550Z,14.07
2019-04-04T20:01:21.192Z,13.90
2019-04-04T20:06:22.719Z,13.84
2019-04-04T20:11:24.263Z,13.79
2019-04-04T20:16:25.832Z,13.90
2019-04-04T20:21:27.387Z,13.80
2019-04-04T20:26:28.954Z,13.70
2019-04-04T20:31:30.668Z,13.55
2019-04-04T20:36:32.385Z,13.42
2019-04-04T20:41:34.090Z,13.26
2019-04-04T20:46:36.724Z,13.32
2019-04-04T20:51:38.306Z,13.32
2019-04-04T20:56:40.027Z,13.23
2019-04-04T21:01:41.742Z,13.29
2019-04-04T21:06:43.508Z,13.16
2019-04-04T21:11:45.102Z,13.10
2019-04-04T21:16:46.702Z,12.95
2019-04-04T21:21:48.429Z,13.01
2019-04-04T21:26:50.001Z,12.91
2019-04-04T21:31:51.654Z,12.81
2019-04-04T21:36:53.409Z,12.72
2019-04-04T21:41:55.014Z,12.34
2019-04-04T21:46:56.725Z,12.32
2019-04-04T21:51:58.692Z,12.23
2019-04-04T21:57:00.404Z,12.29
2019-04-04T22:02:02.608Z,12.17
2019-04-04T22:07:04.423Z,12.10
2019-04-04T22:12:05.965Z,12.08
2019-04-04T22:17:07.566Z,12.00
2019-04-04T22:22:09.227Z,12.03
2019-04-04T22:27:10.956Z,11.91
2019-04-04T22:32:12.488Z,11.81
2019-04-04T22:37:14.069Z,11.87
2019-04-04T22:42:15.718Z,11.88
2019-04-04T22:47:17.363Z,11.79
2019-04-04T22:58:03.528Z,11.59
2019-04-04T23:03:06.427Z,11.52
2019-04-04T23:08:08.001Z,11.45
2019-04-04T23:13:09.675Z,11.61
2019-04-04T23:18:11.240Z,11.61
2019-04-04T23:23:12.995Z,11.66
2019-04-04T23:28:14.561Z,11.59
2019-04-04T23:33:16.131Z,11.58
2019-04-04T23:38:17.828Z,11.53
2019-04-04T23:43:19.378Z,11.54
2019-04-04T23:48:20.964Z,11.54
2019-04-04T23:53:22.530Z,11.47
2019-04-04T23:58:24.099Z,11.52
